sensor_id;sensor_type;location;lat;lon;timestamp;temperature;humidity
12634;DHT22;6382;48.614;8.880;2023-03-16T00:00:07;-0.30;99.90
12634;DHT22;6382;48.614;8.880;2023-03-16T00:02:40;-0.40;99.90
12634;DHT22;6382;48.614;8.880;2023-03-16T00:05:07;-0.40;99.90
12634;DHT22;6382;48.614;8.880;2023-03-16T00:07:34;2.70;99.90
12634;DHT22;6382;48.614;8.880;2023-03-16T00:10:01;-0.50;99.90
12634;DHT22;6382;48.614;8.880;2023-03-16T00:12:29;-0.50;99.90
12634;DHT22;6382;48.614;8.880;2023-03-16T00:15:00;-0.50;99.90
12634;DHT22;6382;48.614;8.880;2023-03-16T00:17:27;-0.60;99.90
12634;DHT22;6382;48.614;8.880;2023-03-16T00:19:54;-0.60;99.90
12634;DHT22;6382;48.614;8.880;2023-03-16T00:22:22;-0.50;99.90
12634;DHT22;6382;48.614;8.880;2023-03-16T00:24:49;-0.50;99.90
12634;DHT22;6382;48.614;8.880;2023-03-16T00:27:15;-0.50;99.90
12634;DHT22;6382;48.614;8.880;2023-03-16T00:29:43;-0.50;99.90
12634;DHT22;6382;48.614;8.880;2023-03-16T00:32:13;-0.60;99.90
12634;DHT22;6382;48.614;8.880;2023-03-16T00:34:42;-0.60;99.90
12634;DHT22;6382;48.614;8.880;2023-03-16T00:37:08;-0.70;99.90
12634;DHT22;6382;48.614;8.880;2023-03-16T00:39:35;-0.80;99.90
12634;DHT22;6382;48.614;8.880;2023-03-16T00:42:02;-0.80;99.90
12634;DHT22;6382;48.614;8.880;2023-03-16T00:44:29;-0.80;99.90
12634;DHT22;6382;48.614;8.880;2023-03-16T00:46:56;-0.80;99.90
12634;DHT22;6382;48.614;8.880;2023-03-16T00:49:23;-0.80;99.90
12634;DHT22;6382;48.614;8.880;2023-03-16T00:51:50;-0.90;99.90
12634;DHT22;6382;48.614;8.880;2023-03-16T00:54:17;-0.90;99.90
12634;DHT22;6382;48.614;8.880;2023-03-16T00:56:43;-1.00;99.90
12634;DHT22;6382;48.614;8.880;2023-03-16T00:59:10;-1.00;99.90
12634;DHT22;6382;48.614;8.880;2023-03-16T01:01:38;-1.00;99.90
12634;DHT22;6382;48.614;8.880;2023-03-16T01:04:05;-1.10;99.90
12634;DHT22;6382;48.614;8.880;2023-03-16T01:06:32;-1.00;99.90
12634;DHT22;6382;48.614;8.880;2023-03-16T01:08:58;-1.10;99.90
12634;DHT22;6382;48.614;8.880;2023-03-16T01:11:25;-1.10;99.90
12634;DHT22;6382;48.614;8.880;2023-03-16T01:13:52;-1.00;99.90
12634;DHT22;6382;48.614;8.880;2023-03-16T01:16:19;-1.00;99.90
12634;DHT22;6382;48.614;8.880;2023-03-16T01:18:48;-1.10;99.90
12634;DHT22;6382;48.614;8.880;2023-03-16T01:21:15;-1.10;99.90
12634;DHT22;6382;48.614;8.880;2023-03-16T01:23:42;-1.10;99.90
12634;DHT22;6382;48.614;8.880;2023-03-16T01:26:10;-1.10;99.90
12634;DHT22;6382;48.614;8.880;2023-03-16T01:28:36;-1.00;99.90
12634;DHT22;6382;48.614;8.880;2023-03-16T01:31:06;-0.90;99.90
12634;DHT22;6382;48.614;8.880;2023-03-16T01:33:33;-0.90;99.90
12634;DHT22;6382;48.614;8.880;2023-03-16T01:36:02;-0.80;99.90
12634;DHT22;6382;48.614;8.880;2023-03-16T01:38:29;-0.80;99.90
12634;DHT22;6382;48.614;8.880;2023-03-16T01:40:56;-0.80;99.90
12634;DHT22;6382;48.614;8.880;2023-03-16T01:43:24;-0.80;99.90
12634;DHT22;6382;48.614;8.880;2023-03-16T01:48:35;-0.90;99.90
12634;DHT22;6382;48.614;8.880;2023-03-16T01:51:07;-0.90;99.90
12634;DHT22;6382;48.614;8.880;2023-03-16T01:53:35;-0.90;99.90
12634;DHT22;6382;48.614;8.880;2023-03-16T01:56:03;-3.70;99.90
12634;DHT22;6382;48.614;8.880;2023-03-16T01:58:32;-0.90;99.90
12634;DHT22;6382;48.614;8.880;2023-03-16T02:00:59;-0.80;99.90
12634;DHT22;6382;48.614;8.880;2023-03-16T02:03:26;-0.70;99.90
12634;DHT22;6382;48.614;8.880;2023-03-16T02:05:55;-0.70;99.90
12634;DHT22;6382;48.614;8.880;2023-03-16T02:08:24;-0.70;99.90
12634;DHT22;6382;48.614;8.880;2023-03-16T02:10:53;-0.60;99.90
12634;DHT22;6382;48.614;8.880;2023-03-16T02:13:21;-0.60;99.90
12634;DHT22;6382;48.614;8.880;2023-03-16T02:15:49;-0.60;99.90
12634;DHT22;6382;48.614;8.880;2023-03-16T02:18:16;-0.50;99.90
12634;DHT22;6382;48.614;8.880;2023-03-16T02:23:14;-0.50;99.90
12634;DHT22;6382;48.614;8.880;2023-03-16T02:28:17;-0.50;99.90
12634;DHT22;6382;48.614;8.880;2023-03-16T02:30:45;-0.50;99.90
12634;DHT22;6382;48.614;8.880;2023-03-16T02:33:12;-0.40;99.90
12634;DHT22;6382;48.614;8.880;2023-03-16T02:35:39;-0.40;99.90
12634;DHT22;6382;48.614;8.880;2023-03-16T02:38:06;-0.40;99.90
12634;DHT22;6382;48.614;8.880;2023-03-16T02:40:33;-0.30;99.90
12634;DHT22;6382;48.614;8.880;2023-03-16T02:43:03;-0.30;99.90
12634;DHT22;6382;48.614;8.880;2023-03-16T02:45:32;-0.30;99.90
12634;DHT22;6382;48.614;8.880;2023-03-16T02:48:01;-0.30;99.90
12634;DHT22;6382;48.614;8.880;2023-03-16T02:50:30;-0.30;99.90
12634;DHT22;6382;48.614;8.880;2023-03-16T02:52:57;-0.30;99.90
12634;DHT22;6382;48.614;8.880;2023-03-16T02:55:23;-0.30;99.90
12634;DHT22;6382;48.614;8.880;2023-03-16T02:57:50;-0.20;99.90
12634;DHT22;6382;48.614;8.880;2023-03-16T03:00:17;-0.10;99.90
12634;DHT22;6382;48.614;8.880;2023-03-16T03:02:44;-0.10;99.90
12634;DHT22;6382;48.614;8.880;2023-03-16T03:05:11;-0.10;99.90
12634;DHT22;6382;48.614;8.880;2023-03-16T03:07:38;0.00;99.90
12634;DHT22;6382;48.614;8.880;2023-03-16T03:10:05;0.00;99.90
12634;DHT22;6382;48.614;8.880;2023-03-16T03:12:32;0.00;99.90
12634;DHT22;6382;48.614;8.880;2023-03-16T03:14:59;-0.10;99.90
12634;DHT22;6382;48.614;8.880;2023-03-16T03:17:25;-0.10;99.90
12634;DHT22;6382;48.614;8.880;2023-03-16T03:19:56;-0.10;99.90
12634;DHT22;6382;48.614;8.880;2023-03-16T03:22:24;-0.10;99.90
12634;DHT22;6382;48.614;8.880;2023-03-16T03:24:51;-0.10;99.90
12634;DHT22;6382;48.614;8.880;2023-03-16T03:27:19;-0.10;99.90
12634;DHT22;6382;48.614;8.880;2023-03-16T03:29:47;-0.10;99.90
12634;DHT22;6382;48.614;8.880;2023-03-16T03:32:14;-0.20;99.90
12634;DHT22;6382;48.614;8.880;2023-03-16T03:34:41;-0.20;99.90
12634;DHT22;6382;48.614;8.880;2023-03-16T03:37:08;-0.20;99.90
12634;DHT22;6382;48.614;8.880;2023-03-16T03:39:35;-0.20;99.90
12634;DHT22;6382;48.614;8.880;2023-03-16T03:42:01;-0.30;99.90
12634;DHT22;6382;48.614;8.880;2023-03-16T03:44:28;-0.20;99.90
12634;DHT22;6382;48.614;8.880;2023-03-16T03:46:55;-0.20;99.90
12634;DHT22;6382;48.614;8.880;2023-03-16T03:49:21;-0.30;99.90
12634;DHT22;6382;48.614;8.880;2023-03-16T03:51:48;-0.30;99.90
12634;DHT22;6382;48.614;8.880;2023-03-16T03:54:15;-0.30;99.90
12634;DHT22;6382;48.614;8.880;2023-03-16T03:56:41;-0.30;99.90
12634;DHT22;6382;48.614;8.880;2023-03-16T03:59:08;-0.30;99.90
12634;DHT22;6382;48.614;8.880;2023-03-16T04:01:35;-0.30;99.90
12634;DHT22;6382;48.614;8.880;2023-03-16T04:04:01;-0.30;99.90
12634;DHT22;6382;48.614;8.880;2023-03-16T04:06:28;-0.40;99.90
12634;DHT22;6382;48.614;8.880;2023-03-16T04:08:55;-0.40;99.90
12634;DHT22;6382;48.614;8.880;2023-03-16T04:11:21;-0.40;99.90
12634;DHT22;6382;48.614;8.880;2023-03-16T04:13:49;-0.30;99.90
12634;DHT22;6382;48.614;8.880;2023-03-16T04:16:16;-0.30;99.90
12634;DHT22;6382;48.614;8.880;2023-03-16T04:18:43;-0.30;99.90
12634;DHT22;6382;48.614;8.880;2023-03-16T04:21:14;-0.30;99.90
12634;DHT22;6382;48.614;8.880;2023-03-16T04:23:42;-0.30;99.90
12634;DHT22;6382;48.614;8.880;2023-03-16T04:26:09;-0.30;99.90
12634;DHT22;6382;48.614;8.880;2023-03-16T04:28:36;-0.30;99.90
12634;DHT22;6382;48.614;8.880;2023-03-16T04:31:06;-0.40;99.90
12634;DHT22;6382;48.614;8.880;2023-03-16T04:33:34;-0.50;99.90
12634;DHT22;6382;48.614;8.880;2023-03-16T04:36:01;-0.50;99.90
12634;DHT22;6382;48.614;8.880;2023-03-16T04:38:31;-0.50;99.90
12634;DHT22;6382;48.614;8.880;2023-03-16T04:41:00;-0.50;99.90
12634;DHT22;6382;48.614;8.880;2023-03-16T04:43:27;-0.60;99.90
12634;DHT22;6382;48.614;8.880;2023-03-16T04:45:54;-0.60;99.90
12634;DHT22;6382;48.614;8.880;2023-03-16T04:48:20;-0.60;99.90
12634;DHT22;6382;48.614;8.880;2023-03-16T04:50:47;-0.70;99.90
12634;DHT22;6382;48.614;8.880;2023-03-16T04:53:14;-0.70;99.90
12634;DHT22;6382;48.614;8.880;2023-03-16T04:55:40;-0.70;99.90
12634;DHT22;6382;48.614;8.880;2023-03-16T04:58:07;-0.80;99.90
12634;DHT22;6382;48.614;8.880;2023-03-16T05:00:34;-0.80;99.90
12634;DHT22;6382;48.614;8.880;2023-03-16T05:03:00;-0.80;99.90
12634;DHT22;6382;48.614;8.880;2023-03-16T05:05:28;-0.90;99.90
12634;DHT22;6382;48.614;8.880;2023-03-16T05:07:54;-0.90;99.90
12634;DHT22;6382;48.614;8.880;2023-03-16T05:10:21;-0.90;99.90
12634;DHT22;6382;48.614;8.880;2023-03-16T05:12:48;-0.90;99.90
12634;DHT22;6382;48.614;8.880;2023-03-16T05:15:15;-0.90;99.90
12634;DHT22;6382;48.614;8.880;2023-03-16T05:17:41;-1.00;99.90
12634;DHT22;6382;48.614;8.880;2023-03-16T05:20:11;-1.00;99.90
12634;DHT22;6382;48.614;8.880;2023-03-16T05:22:42;-0.90;99.90
12634;DHT22;6382;48.614;8.880;2023-03-16T05:25:08;-0.90;99.90
12634;DHT22;6382;48.614;8.880;2023-03-16T05:27:41;-0.90;99.90
12634;DHT22;6382;48.614;8.880;2023-03-16T05:30:08;-0.90;99.90
12634;DHT22;6382;48.614;8.880;2023-03-16T05:32:35;-1.00;99.90
12634;DHT22;6382;48.614;8.880;2023-03-16T05:35:03;-0.90;99.90
12634;DHT22;6382;48.614;8.880;2023-03-16T05:37:29;-1.00;99.90
12634;DHT22;6382;48.614;8.880;2023-03-16T05:39:56;-0.90;99.90
12634;DHT22;6382;48.614;8.880;2023-03-16T05:42:24;-0.90;99.90
12634;DHT22;6382;48.614;8.880;2023-03-16T05:44:52;-0.90;99.90
12634;DHT22;6382;48.614;8.880;2023-03-16T05:47:19;-0.90;99.90
12634;DHT22;6382;48.614;8.880;2023-03-16T05:49:46;-0.90;99.90
12634;DHT22;6382;48.614;8.880;2023-03-16T05:52:12;-0.90;99.90
12634;DHT22;6382;48.614;8.880;2023-03-16T05:54:39;-1.00;99.90
12634;DHT22;6382;48.614;8.880;2023-03-16T05:57:05;-0.90;99.90
12634;DHT22;6382;48.614;8.880;2023-03-16T05:59:32;-0.90;99.90
12634;DHT22;6382;48.614;8.880;2023-03-16T06:01:59;-0.90;99.90
12634;DHT22;6382;48.614;8.880;2023-03-16T06:04:25;-0.90;99.90
12634;DHT22;6382;48.614;8.880;2023-03-16T06:06:52;-0.90;99.90
12634;DHT22;6382;48.614;8.880;2023-03-16T06:09:19;-0.90;99.90
12634;DHT22;6382;48.614;8.880;2023-03-16T06:11:45;-1.00;99.90
12634;DHT22;6382;48.614;8.880;2023-03-16T06:14:12;-0.90;99.90
12634;DHT22;6382;48.614;8.880;2023-03-16T06:16:39;-0.90;99.90
12634;DHT22;6382;48.614;8.880;2023-03-16T06:19:05;-0.90;99.90
12634;DHT22;6382;48.614;8.880;2023-03-16T06:21:32;-0.90;99.90
12634;DHT22;6382;48.614;8.880;2023-03-16T06:23:59;-0.90;99.90
12634;DHT22;6382;48.614;8.880;2023-03-16T06:26:25;-0.90;99.90
12634;DHT22;6382;48.614;8.880;2023-03-16T06:28:52;-0.90;99.90
12634;DHT22;6382;48.614;8.880;2023-03-16T06:31:19;-0.90;99.90
12634;DHT22;6382;48.614;8.880;2023-03-16T06:33:46;-0.80;99.90
12634;DHT22;6382;48.614;8.880;2023-03-16T06:36:12;-0.80;99.90
12634;DHT22;6382;48.614;8.880;2023-03-16T06:38:40;-0.80;99.90
12634;DHT22;6382;48.614;8.880;2023-03-16T06:41:07;-0.80;99.90
12634;DHT22;6382;48.614;8.880;2023-03-16T06:43:33;-0.70;99.90
12634;DHT22;6382;48.614;8.880;2023-03-16T06:46:00;-0.60;99.90
12634;DHT22;6382;48.614;8.880;2023-03-16T06:48:27;-0.60;99.90
12634;DHT22;6382;48.614;8.880;2023-03-16T06:50:54;-0.50;99.90
12634;DHT22;6382;48.614;8.880;2023-03-16T06:53:20;-0.50;99.90
12634;DHT22;6382;48.614;8.880;2023-03-16T06:55:47;-0.40;99.90
12634;DHT22;6382;48.614;8.880;2023-03-16T06:58:14;-0.40;99.90
12634;DHT22;6382;48.614;8.880;2023-03-16T07:00:41;-0.40;99.90
12634;DHT22;6382;48.614;8.880;2023-03-16T07:03:08;-0.40;99.90
12634;DHT22;6382;48.614;8.880;2023-03-16T07:05:34;0.20;99.90
12634;DHT22;6382;48.614;8.880;2023-03-16T07:08:01;-0.30;99.90
12634;DHT22;6382;48.614;8.880;2023-03-16T07:10:29;-0.20;99.90
12634;DHT22;6382;48.614;8.880;2023-03-16T07:12:56;-0.10;99.90
12634;DHT22;6382;48.614;8.880;2023-03-16T07:15:23;-0.10;99.90
12634;DHT22;6382;48.614;8.880;2023-03-16T07:17:51;-0.10;99.90
12634;DHT22;6382;48.614;8.880;2023-03-16T07:20:18;-0.10;99.90
12634;DHT22;6382;48.614;8.880;2023-03-16T07:22:48;-0.10;99.90
12634;DHT22;6382;48.614;8.880;2023-03-16T07:25:14;0.00;99.90
12634;DHT22;6382;48.614;8.880;2023-03-16T07:27:41;0.10;99.90
12634;DHT22;6382;48.614;8.880;2023-03-16T07:30:09;0.10;99.90
12634;DHT22;6382;48.614;8.880;2023-03-16T07:32:40;0.20;99.90
12634;DHT22;6382;48.614;8.880;2023-03-16T07:35:08;0.30;99.90
12634;DHT22;6382;48.614;8.880;2023-03-16T07:37:35;0.40;99.90
12634;DHT22;6382;48.614;8.880;2023-03-16T07:40:02;0.50;99.90
12634;DHT22;6382;48.614;8.880;2023-03-16T07:42:30;0.50;99.90
12634;DHT22;6382;48.614;8.880;2023-03-16T07:44:57;0.60;99.90
12634;DHT22;6382;48.614;8.880;2023-03-16T07:47:23;0.60;99.90
12634;DHT22;6382;48.614;8.880;2023-03-16T07:49:52;0.60;99.90
12634;DHT22;6382;48.614;8.880;2023-03-16T07:52:18;0.60;99.90
12634;DHT22;6382;48.614;8.880;2023-03-16T07:54:45;0.80;99.90
12634;DHT22;6382;48.614;8.880;2023-03-16T07:57:11;0.90;99.90
12634;DHT22;6382;48.614;8.880;2023-03-16T07:59:38;0.80;99.90
12634;DHT22;6382;48.614;8.880;2023-03-16T08:02:05;1.00;99.90
12634;DHT22;6382;48.614;8.880;2023-03-16T08:04:32;1.10;99.90
12634;DHT22;6382;48.614;8.880;2023-03-16T08:06:58;-1.30;99.90
12634;DHT22;6382;48.614;8.880;2023-03-16T08:09:27;1.10;99.90
12634;DHT22;6382;48.614;8.880;2023-03-16T08:11:54;1.20;99.90
12634;DHT22;6382;48.614;8.880;2023-03-16T08:14:20;1.20;99.90
12634;DHT22;6382;48.614;8.880;2023-03-16T08:16:47;1.30;99.90
12634;DHT22;6382;48.614;8.880;2023-03-16T08:19:14;1.30;99.90
12634;DHT22;6382;48.614;8.880;2023-03-16T08:21:40;1.40;99.90
12634;DHT22;6382;48.614;8.880;2023-03-16T08:24:26;1.40;99.90
12634;DHT22;6382;48.614;8.880;2023-03-16T08:26:53;1.50;99.90
12634;DHT22;6382;48.614;8.880;2023-03-16T08:29:20;1.50;99.90
12634;DHT22;6382;48.614;8.880;2023-03-16T08:31:46;1.60;99.90
12634;DHT22;6382;48.614;8.880;2023-03-16T08:34:13;1.60;99.90
12634;DHT22;6382;48.614;8.880;2023-03-16T08:36:41;1.80;99.90
12634;DHT22;6382;48.614;8.880;2023-03-16T08:39:09;1.90;99.90
12634;DHT22;6382;48.614;8.880;2023-03-16T08:41:37;3.00;99.90
12634;DHT22;6382;48.614;8.880;2023-03-16T08:44:06;2.20;99.90
12634;DHT22;6382;48.614;8.880;2023-03-16T08:46:33;2.40;99.90
12634;DHT22;6382;48.614;8.880;2023-03-16T08:49:00;2.50;99.90
12634;DHT22;6382;48.614;8.880;2023-03-16T08:51:28;2.60;99.90
12634;DHT22;6382;48.614;8.880;2023-03-16T08:53:54;2.80;99.90
12634;DHT22;6382;48.614;8.880;2023-03-16T08:56:21;2.90;99.90
12634;DHT22;6382;48.614;8.880;2023-03-16T08:58:48;3.00;99.90
12634;DHT22;6382;48.614;8.880;2023-03-16T09:01:16;3.10;99.90
12634;DHT22;6382;48.614;8.880;2023-03-16T09:03:44;3.20;99.90
12634;DHT22;6382;48.614;8.880;2023-03-16T09:06:13;3.20;99.90
12634;DHT22;6382;48.614;8.880;2023-03-16T09:08:40;3.30;99.90
12634;DHT22;6382;48.614;8.880;2023-03-16T09:11:07;3.40;99.90
12634;DHT22;6382;48.614;8.880;2023-03-16T09:13:35;3.60;99.90
12634;DHT22;6382;48.614;8.880;2023-03-16T09:16:02;3.70;99.90
12634;DHT22;6382;48.614;8.880;2023-03-16T09:18:29;3.90;99.90
12634;DHT22;6382;48.614;8.880;2023-03-16T09:20:57;3.90;99.90
12634;DHT22;6382;48.614;8.880;2023-03-16T09:23:25;4.00;99.90
12634;DHT22;6382;48.614;8.880;2023-03-16T09:25:55;4.10;99.90
12634;DHT22;6382;48.614;8.880;2023-03-16T09:28:23;4.10;99.90
12634;DHT22;6382;48.614;8.880;2023-03-16T09:30:50;4.20;99.90
12634;DHT22;6382;48.614;8.880;2023-03-16T09:33:17;4.20;99.90
12634;DHT22;6382;48.614;8.880;2023-03-16T09:35:44;4.30;99.90
12634;DHT22;6382;48.614;8.880;2023-03-16T09:38:11;4.40;99.90
12634;DHT22;6382;48.614;8.880;2023-03-16T09:40:38;4.50;99.90
12634;DHT22;6382;48.614;8.880;2023-03-16T09:43:26;4.70;99.90
12634;DHT22;6382;48.614;8.880;2023-03-16T09:48:27;4.90;99.90
12634;DHT22;6382;48.614;8.880;2023-03-16T09:50:56;5.10;99.90
12634;DHT22;6382;48.614;8.880;2023-03-16T09:53:27;5.30;99.90
12634;DHT22;6382;48.614;8.880;2023-03-16T09:56:01;5.40;99.90
12634;DHT22;6382;48.614;8.880;2023-03-16T09:58:28;5.60;99.90
12634;DHT22;6382;48.614;8.880;2023-03-16T10:03:45;5.70;99.90
12634;DHT22;6382;48.614;8.880;2023-03-16T10:06:17;5.90;99.90
12634;DHT22;6382;48.614;8.880;2023-03-16T10:08:48;6.00;99.90
12634;DHT22;6382;48.614;8.880;2023-03-16T10:11:19;6.10;99.90
12634;DHT22;6382;48.614;8.880;2023-03-16T10:16:24;6.10;99.90
12634;DHT22;6382;48.614;8.880;2023-03-16T10:18:56;6.20;99.90
12634;DHT22;6382;48.614;8.880;2023-03-16T10:21:23;6.30;99.90
12634;DHT22;6382;48.614;8.880;2023-03-16T10:23:50;6.40;99.90
12634;DHT22;6382;48.614;8.880;2023-03-16T10:26:20;6.50;99.90
12634;DHT22;6382;48.614;8.880;2023-03-16T10:28:48;6.60;99.90
12634;DHT22;6382;48.614;8.880;2023-03-16T10:31:15;6.70;99.90
12634;DHT22;6382;48.614;8.880;2023-03-16T10:33:42;8.60;99.90
12634;DHT22;6382;48.614;8.880;2023-03-16T10:36:11;7.00;99.90
12634;DHT22;6382;48.614;8.880;2023-03-16T10:38:41;7.10;99.90
12634;DHT22;6382;48.614;8.880;2023-03-16T10:43:45;7.40;99.90
12634;DHT22;6382;48.614;8.880;2023-03-16T10:46:12;7.40;99.90
12634;DHT22;6382;48.614;8.880;2023-03-16T10:48:40;7.60;99.90
12634;DHT22;6382;48.614;8.880;2023-03-16T10:51:11;7.70;99.90
12634;DHT22;6382;48.614;8.880;2023-03-16T10:53:42;7.80;99.90
12634;DHT22;6382;48.614;8.880;2023-03-16T10:58:39;8.00;99.90
12634;DHT22;6382;48.614;8.880;2023-03-16T11:01:11;8.10;99.90
12634;DHT22;6382;48.614;8.880;2023-03-16T11:03:46;8.20;99.90
12634;DHT22;6382;48.614;8.880;2023-03-16T11:06:18;8.30;99.90
12634;DHT22;6382;48.614;8.880;2023-03-16T11:08:46;8.40;99.90
12634;DHT22;6382;48.614;8.880;2023-03-16T11:11:20;8.50;99.90
12634;DHT22;6382;48.614;8.880;2023-03-16T11:13:49;8.50;99.90
12634;DHT22;6382;48.614;8.880;2023-03-16T11:16:22;8.60;99.90
12634;DHT22;6382;48.614;8.880;2023-03-16T11:18:51;8.70;99.90
12634;DHT22;6382;48.614;8.880;2023-03-16T11:23:55;8.80;99.90
12634;DHT22;6382;48.614;8.880;2023-03-16T11:26:26;8.90;99.90
12634;DHT22;6382;48.614;8.880;2023-03-16T11:28:59;9.90;99.90
12634;DHT22;6382;48.614;8.880;2023-03-16T11:31:39;9.00;99.90
12634;DHT22;6382;48.614;8.880;2023-03-16T11:34:12;8.90;99.90
12634;DHT22;6382;48.614;8.880;2023-03-16T11:36:48;9.00;99.90
12634;DHT22;6382;48.614;8.880;2023-03-16T11:39:19;9.10;99.90
12634;DHT22;6382;48.614;8.880;2023-03-16T11:41:56;9.20;99.90
12634;DHT22;6382;48.614;8.880;2023-03-16T11:44:31;9.20;99.90
12634;DHT22;6382;48.614;8.880;2023-03-16T11:54:49;9.30;99.90
12634;DHT22;6382;48.614;8.880;2023-03-16T12:00:06;9.50;99.90
12634;DHT22;6382;48.614;8.880;2023-03-16T12:10:32;10.10;99.90
12634;DHT22;6382;48.614;8.880;2023-03-16T12:13:18;10.10;99.90
12634;DHT22;6382;48.614;8.880;2023-03-16T12:15:53;10.20;99.90
12634;DHT22;6382;48.614;8.880;2023-03-16T12:23:19;10.30;99.90
12634;DHT22;6382;48.614;8.880;2023-03-16T12:25:48;10.30;99.90
12634;DHT22;6382;48.614;8.880;2023-03-16T12:28:25;10.20;99.90
12634;DHT22;6382;48.614;8.880;2023-03-16T12:30:55;10.20;99.90
12634;DHT22;6382;48.614;8.880;2023-03-16T12:38:38;10.30;99.90
12634;DHT22;6382;48.614;8.880;2023-03-16T12:43:45;10.40;99.90
12634;DHT22;6382;48.614;8.880;2023-03-16T12:46:17;10.50;99.90
12634;DHT22;6382;48.614;8.880;2023-03-16T12:48:48;10.50;99.90
12634;DHT22;6382;48.614;8.880;2023-03-16T12:51:17;10.50;99.90
12634;DHT22;6382;48.614;8.880;2023-03-16T12:56:19;10.50;99.90
12634;DHT22;6382;48.614;8.880;2023-03-16T12:58:47;9.30;99.90
12634;DHT22;6382;48.614;8.880;2023-03-16T13:01:14;10.30;99.90
12634;DHT22;6382;48.614;8.880;2023-03-16T13:03:42;10.30;99.90
12634;DHT22;6382;48.614;8.880;2023-03-16T13:06:30;11.70;99.90
12634;DHT22;6382;48.614;8.880;2023-03-16T13:09:02;10.20;99.90
12634;DHT22;6382;48.614;8.880;2023-03-16T13:11:43;10.20;99.90
12634;DHT22;6382;48.614;8.880;2023-03-16T13:14:16;11.40;99.90
12634;DHT22;6382;48.614;8.880;2023-03-16T13:17:01;12.10;99.90
12634;DHT22;6382;48.614;8.880;2023-03-16T13:19:31;10.40;99.90
12634;DHT22;6382;48.614;8.880;2023-03-16T13:22:04;10.50;99.90
12634;DHT22;6382;48.614;8.880;2023-03-16T13:24:48;10.50;99.90
12634;DHT22;6382;48.614;8.880;2023-03-16T13:27:18;12.20;99.90
12634;DHT22;6382;48.614;8.880;2023-03-16T13:29:52;10.90;99.90
12634;DHT22;6382;48.614;8.880;2023-03-16T13:32:19;11.00;99.90
12634;DHT22;6382;48.614;8.880;2023-03-16T13:34:48;11.10;99.90
12634;DHT22;6382;48.614;8.880;2023-03-16T13:37:16;11.20;99.90
12634;DHT22;6382;48.614;8.880;2023-03-16T13:39:50;11.30;99.90
12634;DHT22;6382;48.614;8.880;2023-03-16T13:42:19;11.30;99.90
12634;DHT22;6382;48.614;8.880;2023-03-16T13:44:46;11.30;99.90
12634;DHT22;6382;48.614;8.880;2023-03-16T13:47:14;12.90;99.90
12634;DHT22;6382;48.614;8.880;2023-03-16T13:49:47;11.40;99.90
12634;DHT22;6382;48.614;8.880;2023-03-16T13:52:23;12.00;99.90
12634;DHT22;6382;48.614;8.880;2023-03-16T13:54:51;11.50;99.90
12634;DHT22;6382;48.614;8.880;2023-03-16T13:57:22;11.50;99.90
12634;DHT22;6382;48.614;8.880;2023-03-16T13:59:49;11.50;99.90
12634;DHT22;6382;48.614;8.880;2023-03-16T14:02:17;11.50;99.90
12634;DHT22;6382;48.614;8.880;2023-03-16T14:04:44;11.50;99.90
12634;DHT22;6382;48.614;8.880;2023-03-16T14:07:14;11.40;99.90
12634;DHT22;6382;48.614;8.880;2023-03-16T14:09:42;11.50;99.90
12634;DHT22;6382;48.614;8.880;2023-03-16T14:12:12;11.50;99.90
12634;DHT22;6382;48.614;8.880;2023-03-16T14:14:40;11.40;99.90
12634;DHT22;6382;48.614;8.880;2023-03-16T14:17:11;14.00;99.90
12634;DHT22;6382;48.614;8.880;2023-03-16T14:19:40;11.40;99.90
12634;DHT22;6382;48.614;8.880;2023-03-16T14:22:13;11.30;99.90
12634;DHT22;6382;48.614;8.880;2023-03-16T14:24:40;11.20;99.90
12634;DHT22;6382;48.614;8.880;2023-03-16T14:27:13;11.30;99.90
12634;DHT22;6382;48.614;8.880;2023-03-16T14:29:41;11.20;99.90
12634;DHT22;6382;48.614;8.880;2023-03-16T14:32:20;11.20;99.90
12634;DHT22;6382;48.614;8.880;2023-03-16T14:34:48;11.30;99.90
12634;DHT22;6382;48.614;8.880;2023-03-16T14:37:16;12.40;99.90
12634;DHT22;6382;48.614;8.880;2023-03-16T14:39:45;11.20;99.90
12634;DHT22;6382;48.614;8.880;2023-03-16T14:42:20;11.30;99.90
12634;DHT22;6382;48.614;8.880;2023-03-16T14:44:52;11.40;99.90
12634;DHT22;6382;48.614;8.880;2023-03-16T14:47:21;11.40;99.90
12634;DHT22;6382;48.614;8.880;2023-03-16T14:49:48;11.60;99.90
12634;DHT22;6382;48.614;8.880;2023-03-16T14:54:41;11.30;99.90
12634;DHT22;6382;48.614;8.880;2023-03-16T14:57:11;11.30;99.90
12634;DHT22;6382;48.614;8.880;2023-03-16T14:59:41;11.20;99.90
12634;DHT22;6382;48.614;8.880;2023-03-16T15:02:12;11.20;99.90
12634;DHT22;6382;48.614;8.880;2023-03-16T15:04:40;11.20;99.90
12634;DHT22;6382;48.614;8.880;2023-03-16T15:07:16;11.20;99.90
12634;DHT22;6382;48.614;8.880;2023-03-16T15:09:44;11.20;99.90
12634;DHT22;6382;48.614;8.880;2023-03-16T15:12:15;11.20;99.90
12634;DHT22;6382;48.614;8.880;2023-03-16T15:14:43;11.20;99.90
12634;DHT22;6382;48.614;8.880;2023-03-16T15:17:28;11.20;99.90
12634;DHT22;6382;48.614;8.880;2023-03-16T15:19:55;11.20;99.90
12634;DHT22;6382;48.614;8.880;2023-03-16T15:22:32;11.20;99.90
12634;DHT22;6382;48.614;8.880;2023-03-16T15:25:10;11.30;99.90
12634;DHT22;6382;48.614;8.880;2023-03-16T15:27:43;11.30;99.90
12634;DHT22;6382;48.614;8.880;2023-03-16T15:30:14;11.30;99.90
12634;DHT22;6382;48.614;8.880;2023-03-16T15:32:41;11.30;99.90
12634;DHT22;6382;48.614;8.880;2023-03-16T15:35:08;12.80;99.90
12634;DHT22;6382;48.614;8.880;2023-03-16T15:37:34;11.20;99.90
12634;DHT22;6382;48.614;8.880;2023-03-16T15:40:14;11.10;99.90
12634;DHT22;6382;48.614;8.880;2023-03-16T15:42:40;11.10;99.90
12634;DHT22;6382;48.614;8.880;2023-03-16T15:45:11;11.00;99.90
12634;DHT22;6382;48.614;8.880;2023-03-16T15:47:40;11.00;99.90
12634;DHT22;6382;48.614;8.880;2023-03-16T15:50:11;12.60;99.90
12634;DHT22;6382;48.614;8.880;2023-03-16T15:52:39;10.90;99.90
12634;DHT22;6382;48.614;8.880;2023-03-16T15:55:28;10.90;99.90
12634;DHT22;6382;48.614;8.880;2023-03-16T15:57:58;10.80;99.90
12634;DHT22;6382;48.614;8.880;2023-03-16T16:00:32;10.80;99.90
12634;DHT22;6382;48.614;8.880;2023-03-16T16:03:01;10.70;99.90
12634;DHT22;6382;48.614;8.880;2023-03-16T16:05:28;10.70;99.90
12634;DHT22;6382;48.614;8.880;2023-03-16T16:07:56;10.70;99.90
12634;DHT22;6382;48.614;8.880;2023-03-16T16:10:23;10.70;99.90
12634;DHT22;6382;48.614;8.880;2023-03-16T16:12:50;10.70;99.90
12634;DHT22;6382;48.614;8.880;2023-03-16T16:17:45;10.70;99.90
12634;DHT22;6382;48.614;8.880;2023-03-16T16:20:32;11.30;99.90
12634;DHT22;6382;48.614;8.880;2023-03-16T16:22:59;13.60;99.90
12634;DHT22;6382;48.614;8.880;2023-03-16T16:25:31;12.20;99.90
12634;DHT22;6382;48.614;8.880;2023-03-16T16:28:00;11.00;99.90
12634;DHT22;6382;48.614;8.880;2023-03-16T16:30:28;10.00;99.90
12634;DHT22;6382;48.614;8.880;2023-03-16T16:32:56;10.70;99.90
12634;DHT22;6382;48.614;8.880;2023-03-16T16:35:25;10.70;99.90
12634;DHT22;6382;48.614;8.880;2023-03-16T16:37:55;11.20;99.90
12634;DHT22;6382;48.614;8.880;2023-03-16T16:40:22;10.50;99.90
12634;DHT22;6382;48.614;8.880;2023-03-16T16:42:51;10.50;99.90
12634;DHT22;6382;48.614;8.880;2023-03-16T16:45:22;10.40;99.90
12634;DHT22;6382;48.614;8.880;2023-03-16T16:47:51;10.30;99.90
12634;DHT22;6382;48.614;8.880;2023-03-16T16:50:19;10.30;99.90
12634;DHT22;6382;48.614;8.880;2023-03-16T16:52:47;10.20;99.90
12634;DHT22;6382;48.614;8.880;2023-03-16T16:55:14;10.10;99.90
12634;DHT22;6382;48.614;8.880;2023-03-16T16:57:41;10.00;99.90
12634;DHT22;6382;48.614;8.880;2023-03-16T17:00:15;9.90;99.90